Time;durP1;ratioP1;P1;durP2;ratioP2;P2;SDS_P1;SDS_P2;PMS_P1;PMS_P2;Temp;Humidity;BMP_temperature;BMP_pressure;BME280_temperature;BME280_humidity;BME280_pressure;Samples;Min_cycle;Max_cycle;Signal;HPM_P1;HPM_P2
2023/05/29 00:02:34;;;;;;;;;;;20.20;60.00;;;;;;6272016;28;19920;-69
2023/05/29 00:05:35;;;;;;;;;;;20.20;60.10;;;;;;6269114;28;19912;-69
2023/05/29 00:08:36;;;;;;;;;;;20.20;60.00;;;;;;6271607;28;19919;-69
2023/05/29 00:11:36;;;;;;;;;;;20.20;60.00;;;;;;6271876;28;20360;-68
2023/05/29 00:14:36;;;;;;;;;;;20.20;60.00;;;;;;6271985;28;19908;-69
2023/05/29 00:17:37;;;;;;;;;;;20.20;60.10;;;;;;6271570;28;19909;-69
2023/05/29 00:20:38;;;;;;;;;;;20.20;60.10;;;;;;6271513;28;19916;-69
2023/05/29 00:23:38;;;;;;;;;;;20.20;60.10;;;;;;6265839;28;19919;-69
2023/05/29 00:26:39;;;;;;;;;;;20.20;60.00;;;;;;6271317;28;19959;-69
2023/05/29 00:29:40;;;;;;;;;;;20.20;60.00;;;;;;6271902;28;20373;-69
2023/05/29 00:32:41;;;;;;;;;;;20.20;60.10;;;;;;6271084;28;19959;-69
2023/05/29 00:35:41;;;;;;;;;;;20.20;60.10;;;;;;6271379;28;20374;-69
2023/05/29 00:38:42;;;;;;;;;;;20.20;60.00;;;;;;6271263;28;19939;-69
2023/05/29 00:41:42;;;;;;;;;;;20.20;60.10;;;;;;6271143;28;19913;-69
2023/05/29 00:44:43;;;;;;;;;;;20.20;60.00;;;;;;6271154;28;19932;-69
2023/05/29 00:47:44;;;;;;;;;;;20.20;60.20;;;;;;6271053;28;20095;-69
2023/05/29 00:50:45;;;;;;;;;;;20.20;60.10;;;;;;6270982;28;19945;-69
2023/05/29 00:53:46;;;;;;;;;;;20.20;60.10;;;;;;6270647;28;20405;-69
2023/05/29 00:56:47;;;;;;;;;;;20.20;60.10;;;;;;6270796;28;19912;-69
2023/05/29 00:59:47;;;;;;;;;;;20.20;60.00;;;;;;6270712;28;20425;-69
2023/05/29 01:02:48;;;;;;;;;;;20.20;60.10;;;;;;6270471;28;19909;-69
2023/05/29 01:05:48;;;;;;;;;;;20.20;60.20;;;;;;6267691;28;20062;-69
2023/05/29 01:08:49;;;;;;;;;;;20.20;60.20;;;;;;6270432;28;19916;-69
2023/05/29 01:11:50;;;;;;;;;;;20.20;60.10;;;;;;6268632;28;20415;-69
2023/05/29 01:15:09;;;;;;;;;;;20.20;60.00;;;;;;6270438;28;20399;-69
2023/05/29 01:18:17;;;;;;;;;;;20.20;60.10;;;;;;6270082;28;19909;-69
2023/05/29 01:21:23;;;;;;;;;;;20.20;60.10;;;;;;6270579;28;19953;-69
2023/05/29 01:24:23;;;;;;;;;;;20.20;60.10;;;;;;6269799;28;20427;-69
2023/05/29 01:27:25;;;;;;;;;;;20.20;60.00;;;;;;6270261;28;19916;-69
2023/05/29 01:30:28;;;;;;;;;;;20.20;60.10;;;;;;6270526;28;19988;-69
2023/05/29 01:33:28;;;;;;;;;;;20.20;60.20;;;;;;6269649;28;19909;-69
2023/05/29 01:36:29;;;;;;;;;;;20.20;60.10;;;;;;6269198;28;19916;-69
2023/05/29 01:39:30;;;;;;;;;;;20.20;60.10;;;;;;6269871;28;19944;-69
2023/05/29 01:42:31;;;;;;;;;;;20.10;60.00;;;;;;6269517;28;19909;-69
2023/05/29 01:45:32;;;;;;;;;;;20.20;60.10;;;;;;6269580;28;19917;-69
2023/05/29 01:48:32;;;;;;;;;;;20.20;60.10;;;;;;6269226;28;20395;-69
2023/05/29 01:51:33;;;;;;;;;;;20.20;60.20;;;;;;6269525;28;19967;-69
2023/05/29 01:54:33;;;;;;;;;;;20.10;60.10;;;;;;6269333;28;19943;-69
2023/05/29 01:57:34;;;;;;;;;;;20.10;60.00;;;;;;6269319;28;19909;-69
2023/05/29 02:00:35;;;;;;;;;;;20.20;60.10;;;;;;6269091;28;19909;-69
2023/05/29 02:03:36;;;;;;;;;;;20.20;60.20;;;;;;6268775;28;19996;-69
2023/05/29 02:06:36;;;;;;;;;;;20.20;60.10;;;;;;6269061;28;19935;-69
2023/05/29 02:09:37;;;;;;;;;;;20.20;60.10;;;;;;6269011;28;19908;-69
2023/05/29 02:12:37;;;;;;;;;;;20.20;60.10;;;;;;6269200;28;19909;-69
2023/05/29 02:15:38;;;;;;;;;;;20.20;60.10;;;;;;6268767;28;19908;-69
2023/05/29 02:18:39;;;;;;;;;;;20.20;60.20;;;;;;6268822;28;19916;-69
2023/05/29 02:21:42;;;;;;;;;;;20.20;60.10;;;;;;6268470;28;19909;-69
2023/05/29 02:24:43;;;;;;;;;;;20.20;60.20;;;;;;6269102;28;19920;-69
2023/05/29 02:27:43;;;;;;;;;;;20.20;60.10;;;;;;6268814;28;19935;-69
2023/05/29 02:30:44;;;;;;;;;;;20.20;60.10;;;;;;6268706;28;19909;-69
2023/05/29 02:33:44;;;;;;;;;;;20.20;60.10;;;;;;6268139;28;19909;-70
2023/05/29 02:36:45;;;;;;;;;;;20.10;60.00;;;;;;6268940;28;19909;-68
2023/05/29 02:39:45;;;;;;;;;;;20.20;60.10;;;;;;6268344;28;19917;-69
2023/05/29 02:42:46;;;;;;;;;;;20.10;60.00;;;;;;6268885;28;19909;-69
2023/05/29 02:45:47;;;;;;;;;;;20.20;60.10;;;;;;6267999;28;19995;-69
2023/05/29 02:48:48;;;;;;;;;;;20.20;60.10;;;;;;6267640;28;20295;-69
2023/05/29 02:51:48;;;;;;;;;;;20.10;60.00;;;;;;6268074;28;19909;-69
2023/05/29 02:54:49;;;;;;;;;;;20.10;60.00;;;;;;6246413;28;19921;-69
2023/05/29 02:57:52;;;;;;;;;;;20.10;60.10;;;;;;6268477;28;19991;-69
2023/05/29 03:00:53;;;;;;;;;;;20.20;60.10;;;;;;6268000;28;20347;-69
2023/05/29 03:03:54;;;;;;;;;;;20.20;60.20;;;;;;6267198;28;19916;-69
2023/05/29 03:06:55;;;;;;;;;;;20.20;60.20;;;;;;6268221;28;19913;-70
2023/05/29 03:09:56;;;;;;;;;;;20.20;60.10;;;;;;6267714;28;20405;-69
2023/05/29 03:12:57;;;;;;;;;;;20.20;60.20;;;;;;6267680;28;19909;-69
2023/05/29 03:15:57;;;;;;;;;;;20.20;60.20;;;;;;6267815;28;19999;-69
2023/05/29 03:18:58;;;;;;;;;;;20.20;60.20;;;;;;6268258;28;19978;-69
2023/05/29 03:21:58;;;;;;;;;;;20.10;60.00;;;;;;6268045;28;20375;-69
2023/05/29 03:24:59;;;;;;;;;;;20.20;60.10;;;;;;6267499;28;19917;-69
2023/05/29 03:28:00;;;;;;;;;;;20.20;60.10;;;;;;6267531;28;19912;-69
2023/05/29 03:31:01;;;;;;;;;;;20.20;60.20;;;;;;6267352;28;19940;-69
2023/05/29 03:34:02;;;;;;;;;;;20.20;60.20;;;;;;6267538;28;19963;-68
2023/05/29 03:37:03;;;;;;;;;;;20.10;60.00;;;;;;6267947;28;19916;-69
2023/05/29 03:40:04;;;;;;;;;;;20.10;60.00;;;;;;6266928;28;19912;-69
2023/05/29 03:43:05;;;;;;;;;;;20.10;60.10;;;;;;6268174;28;19912;-69
2023/05/29 03:46:05;;;;;;;;;;;20.20;60.20;;;;;;6267418;28;19919;-70
2023/05/29 03:49:07;;;;;;;;;;;20.10;60.00;;;;;;6267157;28;19908;-69
2023/05/29 03:52:07;;;;;;;;;;;20.20;60.20;;;;;;6268072;28;19909;-69
2023/05/29 03:55:14;;;;;;;;;;;20.20;60.20;;;;;;6267079;28;19921;-70
2023/05/29 03:58:15;;;;;;;;;;;20.20;60.20;;;;;;6267981;28;20288;-69
2023/05/29 04:01:16;;;;;;;;;;;20.10;60.00;;;;;;6271652;28;20599;-69
2023/05/29 04:04:16;;;;;;;;;;;20.10;60.00;;;;;;6272409;28;19916;-69
2023/05/29 04:07:18;;;;;;;;;;;20.20;60.10;;;;;;6271970;28;19913;-69
2023/05/29 04:10:18;;;;;;;;;;;20.10;60.00;;;;;;6272528;28;19909;-69
2023/05/29 04:13:19;;;;;;;;;;;20.10;60.00;;;;;;6272071;28;20001;-70
2023/05/29 04:16:20;;;;;;;;;;;20.10;60.10;;;;;;6271790;28;20043;-69
2023/05/29 04:19:20;;;;;;;;;;;20.10;60.10;;;;;;6271957;28;19913;-69
2023/05/29 04:22:21;;;;;;;;;;;20.10;60.10;;;;;;6271564;28;19916;-69
2023/05/29 04:25:22;;;;;;;;;;;20.10;60.10;;;;;;6271194;28;20210;-69
2023/05/29 04:28:23;;;;;;;;;;;20.10;60.00;;;;;;6271605;28;20066;-69
2023/05/29 04:31:25;;;;;;;;;;;20.10;60.00;;;;;;6268077;28;19959;-69
2023/05/29 04:34:25;;;;;;;;;;;20.10;60.10;;;;;;6271606;28;20309;-69
2023/05/29 04:37:28;;;;;;;;;;;20.20;60.10;;;;;;6271401;28;20240;-69
2023/05/29 04:40:31;;;;;;;;;;;20.10;60.10;;;;;;6270959;28;19913;-69
2023/05/29 04:43:32;;;;;;;;;;;20.10;60.10;;;;;;6268411;28;19966;-69
2023/05/29 04:46:34;;;;;;;;;;;20.10;60.10;;;;;;6253889;28;19964;-69
2023/05/29 04:49:34;;;;;;;;;;;20.10;60.10;;;;;;6270888;28;19917;-69
2023/05/29 04:52:36;;;;;;;;;;;20.10;60.10;;;;;;6270845;28;19983;-69
2023/05/29 04:55:37;;;;;;;;;;;20.20;60.20;;;;;;6267321;28;20291;-69
2023/05/29 04:58:38;;;;;;;;;;;20.10;60.00;;;;;;6270982;28;19920;-69
2023/05/29 05:01:39;;;;;;;;;;;20.10;60.10;;;;;;6269627;28;20005;-69
2023/05/29 05:04:39;;;;;;;;;;;20.10;60.10;;;;;;6270590;28;19942;-69
2023/05/29 05:07:40;;;;;;;;;;;20.10;60.10;;;;;;6270443;28;19917;-69
2023/05/29 05:10:40;;;;;;;;;;;20.10;60.10;;;;;;6270227;28;19978;-69
2023/05/29 05:13:41;;;;;;;;;;;20.10;60.10;;;;;;6270334;28;20009;-69
2023/05/29 05:16:41;;;;;;;;;;;20.10;60.10;;;;;;6270425;28;19909;-69
2023/05/29 05:19:42;;;;;;;;;;;20.10;60.10;;;;;;6270796;28;19908;-69
2023/05/29 05:22:42;;;;;;;;;;;20.10;60.10;;;;;;6270342;28;19955;-69
2023/05/29 05:25:43;;;;;;;;;;;20.10;60.10;;;;;;6269965;28;19917;-69
2023/05/29 05:28:43;;;;;;;;;;;20.10;60.00;;;;;;6269539;28;19999;-69
2023/05/29 05:31:44;;;;;;;;;;;20.10;60.10;;;;;;6269578;28;19932;-69
2023/05/29 05:34:44;;;;;;;;;;;20.10;60.10;;;;;;6269869;28;20007;-69
2023/05/29 05:37:45;;;;;;;;;;;20.20;60.20;;;;;;6269858;28;19952;-69
2023/05/29 05:40:45;;;;;;;;;;;20.20;60.20;;;;;;6269387;28;20018;-69
2023/05/29 05:43:46;;;;;;;;;;;20.20;60.20;;;;;;6269916;28;19919;-69
2023/05/29 05:46:47;;;;;;;;;;;20.10;60.10;;;;;;6269424;28;19992;-69
2023/05/29 05:49:49;;;;;;;;;;;20.10;60.10;;;;;;6269508;28;19959;-69
2023/05/29 05:52:50;;;;;;;;;;;20.10;60.10;;;;;;6269582;28;19921;-69
2023/05/29 05:55:51;;;;;;;;;;;20.10;60.10;;;;;;6269090;28;19932;-69
2023/05/29 05:58:51;;;;;;;;;;;20.10;60.10;;;;;;6268880;28;20249;-69
2023/05/29 06:01:52;;;;;;;;;;;20.10;60.10;;;;;;6271097;28;20406;-69
2023/05/29 06:04:52;;;;;;;;;;;20.10;60.10;;;;;;6271150;28;19927;-69
2023/05/29 06:07:53;;;;;;;;;;;20.10;60.10;;;;;;6271085;28;19955;-69
2023/05/29 06:10:53;;;;;;;;;;;20.10;60.10;;;;;;6271135;28;20373;-69
2023/05/29 06:13:54;;;;;;;;;;;20.10;60.10;;;;;;6271051;28;19909;-69
2023/05/29 06:16:54;;;;;;;;;;;20.20;60.20;;;;;;6270865;28;19956;-69
2023/05/29 06:19:55;;;;;;;;;;;20.10;60.20;;;;;;6271084;28;19909;-69
2023/05/29 06:22:55;;;;;;;;;;;20.20;60.20;;;;;;6270344;28;19935;-69
2023/05/29 06:25:56;;;;;;;;;;;20.20;60.20;;;;;;6271192;28;19983;-69
2023/05/29 06:28:57;;;;;;;;;;;20.10;60.10;;;;;;6270938;28;19909;-69
2023/05/29 06:31:57;;;;;;;;;;;20.10;60.10;;;;;;6270805;28;19909;-69
2023/05/29 06:34:58;;;;;;;;;;;20.10;60.10;;;;;;6270619;28;19909;-69
2023/05/29 06:37:58;;;;;;;;;;;20.10;60.10;;;;;;6270852;28;19948;-69
2023/05/29 06:40:59;;;;;;;;;;;20.10;60.10;;;;;;6270525;28;20011;-69
2023/05/29 06:44:00;;;;;;;;;;;20.10;60.40;;;;;;6270313;28;20348;-70
2023/05/29 06:47:00;;;;;;;;;;;20.10;60.10;;;;;;6270353;28;20003;-69
2023/05/29 06:50:01;;;;;;;;;;;20.10;60.10;;;;;;6270406;28;20363;-69
2023/05/29 06:53:01;;;;;;;;;;;20.10;60.10;;;;;;6270238;28;19920;-69
2023/05/29 06:56:02;;;;;;;;;;;20.10;60.10;;;;;;6269861;28;19934;-69
2023/05/29 06:59:02;;;;;;;;;;;20.20;60.20;;;;;;6270427;28;20405;-69
2023/05/29 07:02:03;;;;;;;;;;;20.10;60.10;;;;;;6270135;28;20018;-69
2023/05/29 07:05:03;;;;;;;;;;;20.10;60.20;;;;;;6270004;28;19917;-69
2023/05/29 07:08:04;;;;;;;;;;;20.10;60.10;;;;;;6270157;28;19912;-70
2023/05/29 07:11:04;;;;;;;;;;;20.10;60.10;;;;;;6269897;28;19908;-69
2023/05/29 07:14:05;;;;;;;;;;;20.10;60.10;;;;;;6270293;28;19909;-69
2023/05/29 07:17:05;;;;;;;;;;;20.10;60.10;;;;;;6269662;28;19908;-69
2023/05/29 07:20:07;;;;;;;;;;;20.10;60.10;;;;;;6270437;28;19915;-69
2023/05/29 07:23:08;;;;;;;;;;;20.10;60.10;;;;;;6269757;28;19912;-69
2023/05/29 07:26:08;;;;;;;;;;;20.10;60.20;;;;;;6270187;28;20005;-69
2023/05/29 07:29:09;;;;;;;;;;;20.10;60.10;;;;;;6269577;28;19909;-69
2023/05/29 07:32:10;;;;;;;;;;;20.20;60.30;;;;;;6270181;28;19931;-70
2023/05/29 07:35:11;;;;;;;;;;;20.10;60.20;;;;;;6274613;28;19909;-69
2023/05/29 07:38:11;;;;;;;;;;;20.10;60.10;;;;;;6274555;28;20296;-69
2023/05/29 07:41:14;;;;;;;;;;;20.10;60.10;;;;;;6274614;28;19920;-70
2023/05/29 07:44:15;;;;;;;;;;;20.10;60.20;;;;;;6274652;28;19916;-69
2023/05/29 07:47:15;;;;;;;;;;;20.10;60.10;;;;;;6256645;28;19909;-69
2023/05/29 07:50:16;;;;;;;;;;;20.10;60.10;;;;;;6274334;28;19908;-69
2023/05/29 07:53:16;;;;;;;;;;;20.10;60.20;;;;;;6274077;28;19960;-69
2023/05/29 07:56:17;;;;;;;;;;;20.10;60.10;;;;;;6274375;28;19919;-69
2023/05/29 07:59:17;;;;;;;;;;;20.10;60.20;;;;;;6274326;28;20002;-69
2023/05/29 08:02:18;;;;;;;;;;;20.10;60.20;;;;;;6274301;28;19909;-69
2023/05/29 08:05:19;;;;;;;;;;;20.10;60.10;;;;;;6274113;28;20011;-69
2023/05/29 08:08:19;;;;;;;;;;;20.10;60.20;;;;;;6274373;28;20382;-69
2023/05/29 08:11:21;;;;;;;;;;;20.10;60.20;;;;;;6273863;28;20453;-69
2023/05/29 08:14:21;;;;;;;;;;;20.10;60.20;;;;;;6273949;28;20403;-69
2023/05/29 08:17:22;;;;;;;;;;;20.10;61.00;;;;;;6273769;28;19970;-70
2023/05/29 08:20:22;;;;;;;;;;;20.10;60.20;;;;;;6273797;28;19917;-70
2023/05/29 08:23:23;;;;;;;;;;;20.10;61.00;;;;;;6274030;28;19923;-69
2023/05/29 08:26:23;;;;;;;;;;;20.20;60.30;;;;;;6273809;28;19913;-69
2023/05/29 08:29:24;;;;;;;;;;;20.10;60.20;;;;;;6273488;28;19957;-70
2023/05/29 08:32:25;;;;;;;;;;;20.10;60.20;;;;;;6273208;28;19919;-69
2023/05/29 08:35:25;;;;;;;;;;;20.10;60.20;;;;;;6261640;28;20034;-69
2023/05/29 08:38:26;;;;;;;;;;;20.10;60.20;;;;;;6271849;28;19908;-69
2023/05/29 08:41:41;;;;;;;;;;;20.20;60.30;;;;;;6271643;28;20375;-69
2023/05/29 08:44:45;;;;;;;;;;;20.10;60.20;;;;;;6273273;28;19925;-69
2023/05/29 08:47:49;;;;;;;;;;;20.10;60.20;;;;;;6271760;28;19909;-69
2023/05/29 08:50:52;;;;;;;;;;;20.20;60.30;;;;;;6271769;28;20390;-69
2023/05/29 08:53:52;;;;;;;;;;;20.10;60.20;;;;;;6272261;28;20501;-70
2023/05/29 08:56:53;;;;;;;;;;;20.10;60.20;;;;;;6271567;28;19920;-70
2023/05/29 08:59:55;;;;;;;;;;;20.10;60.20;;;;;;6272898;28;19909;-70
2023/05/29 09:02:55;;;;;;;;;;;20.10;60.20;;;;;;6272219;28;19999;-69
2023/05/29 09:06:00;;;;;;;;;;;20.10;60.20;;;;;;6272031;28;19912;-69
2023/05/29 09:09:00;;;;;;;;;;;20.10;60.20;;;;;;6272167;28;19920;-69
2023/05/29 09:12:02;;;;;;;;;;;20.10;60.20;;;;;;6271822;28;19909;-70
2023/05/29 09:15:03;;;;;;;;;;;20.10;60.20;;;;;;6272021;28;19916;-70
2023/05/29 09:18:04;;;;;;;;;;;20.10;60.20;;;;;;6271597;28;19956;-70
2023/05/29 09:21:10;;;;;;;;;;;20.10;60.20;;;;;;6271690;28;19909;-69
2023/05/29 09:24:11;;;;;;;;;;;20.10;60.20;;;;;;6271657;28;20316;-69
2023/05/29 09:27:11;;;;;;;;;;;20.10;60.20;;;;;;6271247;28;19913;-69
2023/05/29 09:30:30;;;;;;;;;;;20.10;60.20;;;;;;6270956;28;20291;-70
2023/05/29 09:33:30;;;;;;;;;;;20.10;60.20;;;;;;6263371;28;19963;-69
2023/05/29 09:36:32;;;;;;;;;;;20.10;60.20;;;;;;6269124;28;19960;-69
2023/05/29 09:39:32;;;;;;;;;;;20.10;60.20;;;;;;6261435;28;20355;-69
2023/05/29 09:42:33;;;;;;;;;;;20.10;60.20;;;;;;6268468;28;19917;-69
2023/05/29 09:45:35;;;;;;;;;;;20.10;60.20;;;;;;6269768;28;20020;-70
2023/05/29 09:48:36;;;;;;;;;;;20.10;60.20;;;;;;6269411;28;19913;-69
2023/05/29 09:51:37;;;;;;;;;;;20.10;60.20;;;;;;6264460;28;19920;-69
2023/05/29 09:54:38;;;;;;;;;;;20.10;60.20;;;;;;6269571;28;19925;-69
2023/05/29 09:57:38;;;;;;;;;;;20.10;60.20;;;;;;6268756;28;19909;-69
2023/05/29 10:00:40;;;;;;;;;;;20.10;60.20;;;;;;6270207;28;20371;-70
2023/05/29 10:03:42;;;;;;;;;;;20.10;60.20;;;;;;6269433;28;19913;-70
2023/05/29 10:06:46;;;;;;;;;;;20.10;60.20;;;;;;6269500;28;19939;-69
2023/05/29 10:09:50;;;;;;;;;;;20.10;60.20;;;;;;6270116;28;20532;-69
2023/05/29 10:12:51;;;;;;;;;;;20.10;60.20;;;;;;6269318;28;19909;-69
2023/05/29 10:15:54;;;;;;;;;;;20.10;60.20;;;;;;6266757;28;20314;-69
2023/05/29 10:18:55;;;;;;;;;;;20.10;60.20;;;;;;6264407;28;19913;-69
2023/05/29 10:21:57;;;;;;;;;;;20.10;60.20;;;;;;6269454;28;19948;-69
2023/05/29 10:24:57;;;;;;;;;;;20.10;60.20;;;;;;6268150;28;20361;-69
2023/05/29 10:27:58;;;;;;;;;;;20.10;60.20;;;;;;6259948;28;19912;-69
2023/05/29 10:31:05;;;;;;;;;;;20.10;60.20;;;;;;6269950;28;19917;-69
2023/05/29 10:34:18;;;;;;;;;;;20.10;60.20;;;;;;6268390;28;19908;-69
2023/05/29 10:37:35;;;;;;;;;;;20.10;60.30;;;;;;6268761;28;20339;-69
2023/05/29 10:40:35;;;;;;;;;;;20.10;60.20;;;;;;6269182;28;19919;-69
2023/05/29 10:43:37;;;;;;;;;;;20.10;60.20;;;;;;6268415;28;20261;-70
2023/05/29 10:46:48;;;;;;;;;;;20.10;60.20;;;;;;6269331;28;20003;-69
2023/05/29 10:49:49;;;;;;;;;;;20.10;60.20;;;;;;6268993;28;19913;-70
2023/05/29 10:52:50;;;;;;;;;;;20.20;60.40;;;;;;6268239;28;19928;-69
2023/05/29 10:55:51;;;;;;;;;;;20.20;60.30;;;;;;6269053;28;19909;-69
2023/05/29 10:58:55;;;;;;;;;;;20.20;60.10;;;;;;6268775;28;19963;-68
2023/05/29 11:01:57;;;;;;;;;;;20.30;60.30;;;;;;6268596;28;19982;-69
2023/05/29 11:05:07;;;;;;;;;;;20.30;60.00;;;;;;6268063;28;20387;-69
2023/05/29 11:08:12;;;;;;;;;;;20.30;60.00;;;;;;6271843;28;20438;-68
2023/05/29 11:11:13;;;;;;;;;;;20.30;60.00;;;;;;6277234;28;19919;-69
2023/05/29 11:14:14;;;;;;;;;;;20.30;60.00;;;;;;6275869;28;20295;-69
2023/05/29 11:17:31;;;;;;;;;;;20.30;60.00;;;;;;6277124;28;19913;-69
2023/05/29 11:20:34;;;;;;;;;;;20.30;60.00;;;;;;6276644;28;19913;-69
2023/05/29 11:23:36;;;;;;;;;;;20.30;60.00;;;;;;6276201;28;19920;-69
2023/05/29 11:26:37;;;;;;;;;;;20.30;60.00;;;;;;6276538;28;20283;-69
2023/05/29 11:29:38;;;;;;;;;;;20.30;60.00;;;;;;6276249;28;19909;-68
2023/05/29 11:32:39;;;;;;;;;;;20.30;60.00;;;;;;6276663;28;19912;-69
2023/05/29 11:35:40;;;;;;;;;;;20.40;60.00;;;;;;6275982;28;19932;-69
2023/05/29 11:38:40;;;;;;;;;;;20.40;59.80;;;;;;6275808;28;19909;-69
2023/05/29 11:41:41;;;;;;;;;;;20.40;59.90;;;;;;6276056;28;19935;-70
2023/05/29 11:44:41;;;;;;;;;;;20.40;59.90;;;;;;6275183;28;19920;-70
2023/05/29 11:47:52;;;;;;;;;;;20.40;60.00;;;;;;6275948;28;19913;-69
2023/05/29 11:50:53;;;;;;;;;;;20.40;60.00;;;;;;6276275;28;20501;-69
2023/05/29 11:53:58;;;;;;;;;;;20.40;60.00;;;;;;6275621;28;19987;-70
2023/05/29 11:57:00;;;;;;;;;;;20.30;59.90;;;;;;6276656;28;19971;-69
2023/05/29 12:00:00;;;;;;;;;;;20.40;59.90;;;;;;6272771;28;20276;-68
2023/05/29 12:03:04;;;;;;;;;;;20.30;59.80;;;;;;6264016;28;19909;-69
2023/05/29 12:06:06;;;;;;;;;;;20.40;60.00;;;;;;6277061;28;19913;-69
2023/05/29 12:09:06;;;;;;;;;;;20.40;59.90;;;;;;6276644;28;20425;-69
2023/05/29 12:12:07;;;;;;;;;;;20.40;59.80;;;;;;6277258;28;19913;-68
2023/05/29 12:15:08;;;;;;;;;;;20.40;59.80;;;;;;6275936;28;19912;-69
2023/05/29 12:18:08;;;;;;;;;;;20.40;59.70;;;;;;6277235;28;19916;-69
2023/05/29 12:21:10;;;;;;;;;;;20.40;57.60;;;;;;6263668;28;19908;-69
2023/05/29 12:24:11;;;;;;;;;;;20.40;56.90;;;;;;6272781;28;19924;-70
2023/05/29 12:27:11;;;;;;;;;;;20.40;56.70;;;;;;6264945;28;19909;-69
2023/05/29 12:30:16;;;;;;;;;;;20.40;57.50;;;;;;6273010;28;19923;-69
2023/05/29 12:33:30;;;;;;;;;;;20.40;56.80;;;;;;6273486;28;19908;-69
2023/05/29 12:36:32;;;;;;;;;;;20.40;56.50;;;;;;6249021;28;20012;-69
2023/05/29 12:39:33;;;;;;;;;;;20.40;57.10;;;;;;6271104;28;19970;-70
2023/05/29 12:42:33;;;;;;;;;;;20.50;58.20;;;;;;6258385;28;19917;-69
2023/05/29 12:45:33;;;;;;;;;;;20.50;58.20;;;;;;6265978;28;19916;-69
2023/05/29 12:48:34;;;;;;;;;;;20.50;57.80;;;;;;6273361;28;19915;-69
2023/05/29 12:51:39;;;;;;;;;;;20.40;57.60;;;;;;6273169;28;19963;-69
2023/05/29 12:54:40;;;;;;;;;;;20.50;58.10;;;;;;6272078;28;20399;-69
2023/05/29 12:57:41;;;;;;;;;;;20.50;58.10;;;;;;6273687;28;19916;-69
2023/05/29 13:00:43;;;;;;;;;;;20.50;57.90;;;;;;6272828;28;20613;-69
2023/05/29 13:03:44;;;;;;;;;;;20.50;58.00;;;;;;6272889;28;20279;-69
2023/05/29 13:06:44;;;;;;;;;;;20.50;56.40;;;;;;6272488;28;19913;-69
2023/05/29 13:09:45;;;;;;;;;;;20.50;56.30;;;;;;6272602;28;19916;-69
2023/05/29 13:12:46;;;;;;;;;;;20.50;54.80;;;;;;6272830;28;20459;-69
2023/05/29 13:15:47;;;;;;;;;;;20.50;56.90;;;;;;6271902;28;19909;-68
2023/05/29 13:18:47;;;;;;;;;;;20.50;57.40;;;;;;6272951;28;20015;-69
2023/05/29 13:21:48;;;;;;;;;;;20.50;57.40;;;;;;6271780;28;19909;-69
2023/05/29 13:24:49;;;;;;;;;;;20.50;57.60;;;;;;6271393;28;19916;-69
2023/05/29 13:27:49;;;;;;;;;;;20.50;57.00;;;;;;6272210;28;19953;-69
2023/05/29 13:30:50;;;;;;;;;;;20.50;57.00;;;;;;6271512;28;20447;-69
2023/05/29 13:33:50;;;;;;;;;;;20.40;56.60;;;;;;6272194;28;19956;-68
2023/05/29 13:36:51;;;;;;;;;;;20.40;56.10;;;;;;6271727;28;19936;-69
2023/05/29 13:39:51;;;;;;;;;;;20.50;57.10;;;;;;6271741;28;20003;-68
2023/05/29 13:42:52;;;;;;;;;;;20.50;56.70;;;;;;6271619;28;19908;-69
2023/05/29 13:45:53;;;;;;;;;;;20.50;57.10;;;;;;6271355;28;19953;-69
2023/05/29 13:48:53;;;;;;;;;;;20.50;57.20;;;;;;6271981;28;19917;-68
2023/05/29 13:51:54;;;;;;;;;;;20.50;56.80;;;;;;6271337;28;19909;-69
2023/05/29 13:54:54;;;;;;;;;;;20.40;56.50;;;;;;6271255;28;20021;-69
2023/05/29 13:57:55;;;;;;;;;;;20.50;57.40;;;;;;6274036;28;20271;-68
2023/05/29 14:00:55;;;;;;;;;;;20.50;57.20;;;;;;6271314;28;19909;-69
2023/05/29 14:03:56;;;;;;;;;;;20.50;56.90;;;;;;6271228;28;19959;-69
2023/05/29 14:06:57;;;;;;;;;;;20.50;56.60;;;;;;6271111;28;19932;-69
2023/05/29 14:09:58;;;;;;;;;;;20.40;57.80;;;;;;6263956;28;20287;-69
2023/05/29 14:12:58;;;;;;;;;;;20.50;57.70;;;;;;6267240;28;20402;-68
2023/05/29 14:15:59;;;;;;;;;;;20.40;56.30;;;;;;6270455;28;19916;-69
2023/05/29 14:18:59;;;;;;;;;;;20.50;57.00;;;;;;6271639;28;19909;-69
2023/05/29 14:22:00;;;;;;;;;;;20.50;57.20;;;;;;6270576;28;19916;-68
2023/05/29 14:25:01;;;;;;;;;;;20.40;57.40;;;;;;6270752;28;19971;-69
2023/05/29 14:28:01;;;;;;;;;;;20.50;57.20;;;;;;6270877;28;19909;-69
2023/05/29 14:31:02;;;;;;;;;;;20.50;57.30;;;;;;6270323;28;19939;-69
2023/05/29 14:34:03;;;;;;;;;;;20.40;57.60;;;;;;6270497;28;19916;-69
2023/05/29 14:37:03;;;;;;;;;;;20.50;55.60;;;;;;6270621;28;19909;-68
2023/05/29 14:40:05;;;;;;;;;;;20.50;56.50;;;;;;6270427;28;19913;-69
2023/05/29 14:43:06;;;;;;;;;;;20.50;57.70;;;;;;6269897;28;19915;-69
2023/05/29 14:46:06;;;;;;;;;;;20.50;55.50;;;;;;6270572;28;19913;-68
2023/05/29 14:49:06;;;;;;;;;;;20.50;56.50;;;;;;6270501;28;20275;-68
2023/05/29 14:52:07;;;;;;;;;;;20.50;57.00;;;;;;6270064;28;19913;-69
2023/05/29 14:55:08;;;;;;;;;;;20.50;57.20;;;;;;6270341;28;20376;-68
2023/05/29 14:58:12;;;;;;;;;;;20.60;57.50;;;;;;6269547;28;21584;-68
2023/05/29 15:01:12;;;;;;;;;;;20.60;56.80;;;;;;6270324;28;19909;-68
2023/05/29 15:04:13;;;;;;;;;;;20.50;55.10;;;;;;6269667;28;20031;-68
2023/05/29 15:07:13;;;;;;;;;;;20.50;56.30;;;;;;6265696;28;20274;-68
2023/05/29 15:10:17;;;;;;;;;;;20.50;56.00;;;;;;6266006;28;20574;-69
2023/05/29 15:13:17;;;;;;;;;;;20.50;56.30;;;;;;6268644;28;20292;-69
2023/05/29 15:16:18;;;;;;;;;;;20.60;56.20;;;;;;6268506;28;19948;-69
2023/05/29 15:19:18;;;;;;;;;;;20.50;56.30;;;;;;6268769;28;19916;-69
2023/05/29 15:22:19;;;;;;;;;;;20.50;56.00;;;;;;6267886;28;19943;-69
2023/05/29 15:25:20;;;;;;;;;;;20.50;55.10;;;;;;6267600;28;19926;-69
2023/05/29 15:28:21;;;;;;;;;;;20.50;56.40;;;;;;6259965;28;19909;-69
2023/05/29 15:31:22;;;;;;;;;;;20.50;56.30;;;;;;6270340;28;20394;-68
2023/05/29 15:34:22;;;;;;;;;;;20.50;56.20;;;;;;6269259;28;20582;-69
2023/05/29 15:37:23;;;;;;;;;;;20.50;56.20;;;;;;6268996;28;19966;-69
2023/05/29 15:40:23;;;;;;;;;;;20.50;55.20;;;;;;6247049;28;19908;-68
2023/05/29 15:43:25;;;;;;;;;;;20.50;56.20;;;;;;6267010;28;19944;-68
2023/05/29 15:46:29;;;;;;;;;;;20.50;55.40;;;;;;6269945;28;19916;-68
2023/05/29 15:49:30;;;;;;;;;;;20.50;55.90;;;;;;6269816;28;19909;-68
2023/05/29 15:52:30;;;;;;;;;;;20.60;56.60;;;;;;6269739;28;19913;-68
2023/05/29 15:55:31;;;;;;;;;;;20.60;56.80;;;;;;6271276;28;20716;-68
2023/05/29 15:58:31;;;;;;;;;;;20.60;57.00;;;;;;6273912;28;19954;-68
2023/05/29 16:01:32;;;;;;;;;;;20.50;57.20;;;;;;6274585;28;20007;-68
2023/05/29 16:04:32;;;;;;;;;;;20.60;58.00;;;;;;6273772;28;19924;-68
2023/05/29 16:07:33;;;;;;;;;;;20.50;57.90;;;;;;6274342;28;19913;-68
2023/05/29 16:10:35;;;;;;;;;;;20.50;57.80;;;;;;6274159;28;19913;-68
2023/05/29 16:13:36;;;;;;;;;;;20.50;57.90;;;;;;6272859;28;19963;-68
2023/05/29 16:16:37;;;;;;;;;;;20.50;58.40;;;;;;6272192;28;19916;-68
2023/05/29 16:19:37;;;;;;;;;;;20.50;58.30;;;;;;6271691;28;19999;-68
2023/05/29 16:22:38;;;;;;;;;;;20.50;58.20;;;;;;6271981;28;19931;-68
2023/05/29 16:25:39;;;;;;;;;;;20.50;57.90;;;;;;6271247;28;19917;-68
2023/05/29 16:28:39;;;;;;;;;;;20.50;58.00;;;;;;6271144;28;19909;-68
2023/05/29 16:31:40;;;;;;;;;;;20.40;58.20;;;;;;6271778;28;19960;-68
2023/05/29 16:34:41;;;;;;;;;;;20.50;58.40;;;;;;6271177;28;19942;-68
2023/05/29 16:37:41;;;;;;;;;;;20.40;58.50;;;;;;6271241;28;19915;-68
2023/05/29 16:40:42;;;;;;;;;;;20.40;58.60;;;;;;6270394;28;19908;-68
2023/05/29 16:43:43;;;;;;;;;;;20.40;58.70;;;;;;6270070;28;19917;-68
2023/05/29 16:46:43;;;;;;;;;;;20.40;58.80;;;;;;6271784;28;20023;-68
2023/05/29 16:49:44;;;;;;;;;;;20.40;58.90;;;;;;6271038;28;19909;-68
2023/05/29 16:52:46;;;;;;;;;;;20.30;58.80;;;;;;6270931;28;19928;-68
2023/05/29 16:55:46;;;;;;;;;;;20.40;58.80;;;;;;6270778;28;19909;-68
2023/05/29 16:58:47;;;;;;;;;;;20.30;58.70;;;;;;6270995;28;19920;-68
2023/05/29 17:01:47;;;;;;;;;;;20.40;58.70;;;;;;6268573;28;20011;-68
2023/05/29 17:04:48;;;;;;;;;;;20.40;58.70;;;;;;6269991;28;19920;-68
2023/05/29 17:07:48;;;;;;;;;;;20.40;58.70;;;;;;6249536;28;20327;-68
2023/05/29 17:10:49;;;;;;;;;;;20.40;58.60;;;;;;6258818;28;19909;-68
2023/05/29 17:13:49;;;;;;;;;;;20.40;58.70;;;;;;6254792;28;19916;-68
2023/05/29 17:16:50;;;;;;;;;;;20.30;58.60;;;;;;6247067;28;19909;-68
2023/05/29 17:19:51;;;;;;;;;;;20.30;58.60;;;;;;6260681;28;20616;-68
2023/05/29 17:22:51;;;;;;;;;;;20.30;58.70;;;;;;6260143;28;19916;-68
2023/05/29 17:25:52;;;;;;;;;;;20.40;58.70;;;;;;6261422;28;19921;-68
2023/05/29 17:28:53;;;;;;;;;;;20.30;58.70;;;;;;6271486;28;20114;-68
2023/05/29 17:31:53;;;;;;;;;;;20.30;58.70;;;;;;6269929;28;19917;-68
2023/05/29 17:34:54;;;;;;;;;;;20.30;58.70;;;;;;6265267;28;19983;-68